Time;durP1;ratioP1;P1;durP2;ratioP2;P2;SDS_P1;SDS_P2;PMS_P1;PMS_P2;Temp;Humidity;BMP_temperature;BMP_pressure;BME280_temperature;BME280_humidity;BME280_pressure;Samples;Min_cycle;Max_cycle;Signal;HPM_P1;HPM_P2
2021/08/31 00:00:12;;;;;;;9.23;3.30;;;13.80;91.40;;;;;;4871653;29;20508;-66
2021/08/31 00:02:39;;;;;;;13.32;2.20;;;13.80;91.40;;;;;;4874883;29;20033;-67
2021/08/31 00:05:06;;;;;;;9.95;2.20;;;13.80;91.40;;;;;;4870545;29;20029;-76
2021/08/31 00:07:32;;;;;;;8.65;2.60;;;13.80;91.40;;;;;;4872707;29;20568;-66
2021/08/31 00:09:59;;;;;;;10.48;3.05;;;13.80;91.40;;;;;;4872745;29;20040;-67
2021/08/31 00:12:25;;;;;;;12.60;3.47;;;13.80;91.40;;;;;;4870847;29;20067;-68
2021/08/31 00:14:52;;;;;;;8.18;2.47;;;13.80;91.40;;;;;;4873325;29;20489;-66
2021/08/31 00:17:18;;;;;;;10.15;2.90;;;13.80;91.50;;;;;;4869436;29;20037;-67
2021/08/31 00:19:45;;;;;;;13.60;3.22;;;13.80;91.30;;;;;;4870954;29;20067;-66
2021/08/31 00:22:12;;;;;;;10.27;2.45;;;13.80;91.30;;;;;;4873924;29;20488;-67
2021/08/31 00:24:40;;;;;;;11.60;2.90;;;13.80;91.30;;;;;;4872441;29;20522;-66
2021/08/31 00:27:07;;;;;;;11.93;3.72;;;13.80;91.30;;;;;;4874725;29;20041;-66
2021/08/31 00:29:34;;;;;;;12.48;2.58;;;13.80;91.20;;;;;;4873859;29;20064;-66
2021/08/31 00:32:00;;;;;;;13.27;3.92;;;13.80;91.30;;;;;;4872575;29;20025;-67
2021/08/31 00:34:27;;;;;;;10.93;3.55;;;13.80;91.30;;;;;;4871355;29;20032;-76
2021/08/31 00:36:53;;;;;;;15.27;3.40;;;13.80;91.20;;;;;;4870079;29;20033;-72
2021/08/31 00:39:20;;;;;;;9.27;2.67;;;13.80;91.10;;;;;;4871635;29;20642;-66
2021/08/31 00:41:47;;;;;;;17.45;3.78;;;13.80;91.40;;;;;;4870900;29;20021;-67
2021/08/31 00:44:28;;;;;;;16.20;3.05;;;13.70;90.90;;;;;;4871771;29;20057;-70
2021/08/31 00:47:02;;;;;;;7.97;2.90;;;13.80;90.60;;;;;;4870769;29;20125;-64
2021/08/31 00:49:31;;;;;;;14.43;2.35;;;13.70;90.40;;;;;;4870537;29;20505;-66
2021/08/31 00:51:58;;;;;;;16.95;3.28;;;13.70;90.40;;;;;;4870752;29;20408;-67
2021/08/31 00:54:26;;;;;;;20.02;3.50;;;13.70;90.40;;;;;;4873630;29;20028;-67
2021/08/31 00:56:53;;;;;;;12.00;3.17;;;13.70;90.40;;;;;;4871016;29;20074;-67
2021/08/31 00:59:21;;;;;;;11.23;2.28;;;13.70;90.30;;;;;;4873310;29;20047;-66
2021/08/31 01:01:55;;;;;;;11.00;3.50;;;13.60;90.20;;;;;;4872948;29;20024;-67
2021/08/31 01:04:29;;;;;;;10.15;3.33;;;13.70;90.10;;;;;;4868488;29;20399;-67
2021/08/31 01:06:56;;;;;;;11.88;3.00;;;13.60;90.10;;;;;;4868650;29;20021;-67
2021/08/31 01:09:27;;;;;;;11.88;3.20;;;13.60;90.20;;;;;;4868593;29;20028;-67
2021/08/31 01:11:55;;;;;;;11.07;3.60;;;13.60;90.20;;;;;;4873925;29;20053;-67
2021/08/31 01:14:23;;;;;;;9.23;2.72;;;13.60;90.30;;;;;;4868679;29;20039;-67
2021/08/31 01:16:50;;;;;;;9.07;3.00;;;13.50;90.20;;;;;;4871144;29;20033;-68
2021/08/31 01:19:30;;;;;;;17.98;3.75;;;13.50;90.20;;;;;;4869855;29;20104;-67
2021/08/31 01:22:09;;;;;;;12.00;2.75;;;13.50;90.30;;;;;;4874326;29;20519;-76
2021/08/31 01:24:41;;;;;;;9.52;2.30;;;13.50;90.50;;;;;;4869412;29;20041;-67
2021/08/31 01:27:08;;;;;;;13.85;4.03;;;13.50;90.50;;;;;;4867792;29;20168;-67
2021/08/31 01:29:34;;;;;;;17.73;4.57;;;13.50;90.50;;;;;;4873939;29;20037;-67
2021/08/31 01:32:02;;;;;;;23.45;11.52;;;13.40;90.40;;;;;;4869940;29;20058;-74
2021/08/31 01:34:29;;;;;;;58.20;38.22;;;13.40;90.50;;;;;;4872175;29;20036;-65
2021/08/31 01:36:56;;;;;;;25.95;16.27;;;13.40;90.70;;;;;;4874801;29;20062;-67
2021/08/31 01:39:23;;;;;;;10.55;4.47;;;13.40;90.70;;;;;;4872166;29;20048;-67
2021/08/31 01:41:49;;;;;;;13.77;3.20;;;13.40;90.70;;;;;;4872987;29;20033;-66
2021/08/31 01:44:16;;;;;;;10.65;2.65;;;13.40;90.80;;;;;;4875163;29;20386;-67
2021/08/31 01:46:42;;;;;;;13.27;3.83;;;13.40;90.80;;;;;;4872484;29;20029;-67
2021/08/31 01:49:09;;;;;;;9.00;2.95;;;13.30;90.80;;;;;;4873664;29;20046;-66
2021/08/31 01:51:36;;;;;;;12.55;2.90;;;13.30;90.90;;;;;;4876098;29;20457;-66
2021/08/31 01:54:02;;;;;;;5.50;2.28;;;13.30;90.90;;;;;;4874431;29;20036;-66
2021/08/31 01:56:29;;;;;;;10.32;3.22;;;13.30;90.90;;;;;;4873306;29;20108;-69
2021/08/31 01:58:55;;;;;;;12.57;4.07;;;13.20;90.90;;;;;;4874692;29;20096;-67
2021/08/31 02:01:22;;;;;;;8.27;2.83;;;13.20;91.00;;;;;;4874344;29;20029;-67
2021/08/31 02:03:48;;;;;;;12.52;3.65;;;13.20;91.00;;;;;;4873663;29;20107;-66
2021/08/31 02:06:15;;;;;;;14.70;3.95;;;13.20;91.10;;;;;;4870176;29;20029;-67
2021/08/31 02:08:41;;;;;;;12.65;3.90;;;13.20;91.10;;;;;;4872356;29;20429;-66
2021/08/31 02:11:47;;;;;;;10.30;3.50;;;13.20;91.10;;;;;;4864061;29;20124;-67
2021/08/31 02:14:14;;;;;;;6.85;2.40;;;13.20;91.00;;;;;;4872968;29;20481;-67
2021/08/31 02:16:41;;;;;;;12.30;2.55;;;13.20;91.10;;;;;;4871193;29;20819;-67
2021/08/31 02:19:07;;;;;;;8.77;2.60;;;13.20;91.10;;;;;;4875028;29;20037;-73
2021/08/31 02:21:34;;;;;;;9.85;2.10;;;13.20;91.20;;;;;;4872428;29;20036;-67
2021/08/31 02:24:00;;;;;;;10.00;2.67;;;13.20;91.20;;;;;;4874256;29;20116;-66
2021/08/31 02:26:30;;;;;;;13.13;2.55;;;13.20;90.70;;;;;;4869835;29;20028;-69
2021/08/31 02:28:57;;;;;;;8.23;1.95;;;13.20;90.60;;;;;;4874076;29;20521;-67
2021/08/31 02:31:23;;;;;;;5.93;1.92;;;13.30;90.60;;;;;;4874230;29;20068;-67
2021/08/31 02:33:50;;;;;;;13.57;2.13;;;13.30;90.60;;;;;;4874210;29;20106;-69
2021/08/31 02:36:16;;;;;;;13.20;4.43;;;13.20;90.50;;;;;;4873915;29;20032;-70
2021/08/31 02:38:43;;;;;;;9.20;2.30;;;13.30;90.60;;;;;;4873619;29;20071;-67
2021/08/31 02:41:09;;;;;;;9.65;2.50;;;13.30;90.20;;;;;;4874642;29;20021;-71
2021/08/31 02:43:36;;;;;;;96.90;66.95;;;13.30;89.80;;;;;;4869830;29;20323;-64
2021/08/31 02:46:02;;;;;;;30.20;18.08;;;13.30;89.30;;;;;;4872325;29;20033;-68
2021/08/31 02:48:29;;;;;;;10.02;3.80;;;13.30;89.20;;;;;;4871101;29;20489;-70
2021/08/31 02:50:55;;;;;;;12.75;4.00;;;13.30;89.00;;;;;;4871464;29;20033;-68
2021/08/31 02:53:22;;;;;;;6.78;2.80;;;13.30;88.50;;;;;;4868210;29;22085;-65
2021/08/31 02:55:48;;;;;;;12.15;3.25;;;13.30;88.30;;;;;;4867349;29;20508;-66
2021/08/31 02:58:15;;;;;;;8.50;1.90;;;13.30;88.40;;;;;;4867344;29;20496;-66
2021/08/31 03:00:53;;;;;;;5.82;2.08;;;13.30;88.40;;;;;;4868008;29;20033;-66
2021/08/31 03:03:20;;;;;;;13.85;2.17;;;13.30;88.70;;;;;;4872847;29;20033;-69
2021/08/31 03:05:47;;;;;;;8.02;2.33;;;13.30;89.10;;;;;;4875571;29;20039;-66
2021/08/31 03:08:13;;;;;;;7.15;1.70;;;13.30;89.30;;;;;;4875426;29;20033;-66
2021/08/31 03:10:40;;;;;;;8.48;2.78;;;13.30;89.40;;;;;;4874979;29;20031;-66
2021/08/31 03:13:06;;;;;;;12.93;2.65;;;13.30;89.50;;;;;;4876535;29;20054;-69
2021/08/31 03:15:33;;;;;;;7.25;2.33;;;13.30;89.60;;;;;;4876260;29;20057;-66
2021/08/31 03:17:59;;;;;;;13.13;3.17;;;13.30;89.40;;;;;;4875412;29;20029;-66
2021/08/31 03:20:26;;;;;;;8.48;3.25;;;13.30;89.10;;;;;;4875413;29;20061;-73
2021/08/31 03:22:53;;;;;;;16.73;3.47;;;13.30;89.00;;;;;;4870900;29;20038;-66
2021/08/31 03:25:19;;;;;;;9.48;2.20;;;13.30;88.60;;;;;;4875101;29;20039;-67
2021/08/31 03:27:45;;;;;;;9.00;3.28;;;13.30;88.40;;;;;;4869538;29;20062;-67
2021/08/31 03:30:12;;;;;;;10.80;1.83;;;13.30;88.10;;;;;;4870780;29;20496;-66
2021/08/31 03:32:41;;;;;;;7.85;3.13;;;13.30;87.00;;;;;;4870156;29;20029;-68
2021/08/31 03:35:08;;;;;;;7.07;2.33;;;13.30;86.60;;;;;;4869628;29;20041;-66
2021/08/31 03:37:34;;;;;;;9.68;2.22;;;13.30;85.90;;;;;;4846886;29;20454;-65
2021/08/31 03:40:01;;;;;;;27.33;19.45;;;13.30;85.60;;;;;;4875121;29;20037;-65
2021/08/31 03:42:27;;;;;;;15.90;7.63;;;13.30;85.60;;;;;;4872512;29;20029;-69
2021/08/31 03:44:53;;;;;;;10.07;3.45;;;13.30;85.00;;;;;;4874116;29;20064;-65
2021/08/31 03:47:20;;;;;;;6.50;2.08;;;13.30;84.40;;;;;;4871317;29;20029;-64
2021/08/31 03:49:47;;;;;;;8.23;2.50;;;13.40;83.90;;;;;;4873071;29;20025;-66
2021/08/31 03:52:14;;;;;;;6.78;3.40;;;13.30;83.80;;;;;;4871797;29;20033;-67
2021/08/31 03:54:40;;;;;;;12.90;2.08;;;13.30;83.80;;;;;;4872167;29;20370;-73
2021/08/31 03:57:07;;;;;;;14.38;3.78;;;13.30;83.30;;;;;;4871279;29;20093;-65
2021/08/31 03:59:33;;;;;;;12.52;2.08;;;13.30;82.70;;;;;;4875301;29;20104;-65
2021/08/31 04:02:00;;;;;;;7.88;1.85;;;13.20;82.70;;;;;;4872163;29;20017;-65
2021/08/31 04:05:06;;;;;;;11.57;2.80;;;13.30;82.70;;;;;;4872986;29;20037;-68
2021/08/31 04:08:12;;;;;;;6.80;2.03;;;13.20;82.40;;;;;;4869808;29;20100;-72
2021/08/31 04:11:18;;;;;;;29.92;20.83;;;13.20;81.00;;;;;;4871611;29;20117;-69
2021/08/31 04:14:24;;;;;;;15.48;5.75;;;13.20;81.10;;;;;;4874825;29;20029;-65
2021/08/31 04:17:30;;;;;;;7.70;1.90;;;13.20;80.20;;;;;;4874402;29;20017;-67
2021/08/31 04:20:37;;;;;;;16.17;2.63;;;13.20;80.00;;;;;;4869248;29;20033;-75
2021/08/31 04:23:23;;;;;;;;;;;13.20;80.10;;;;;;4874441;29;20025;-73
2021/08/31 04:26:30;;;;;;;15.60;2.57;;;13.20;80.60;;;;;;4871290;29;19939;-73
2021/08/31 04:29:48;;;;;;;20.70;8.48;;;13.10;80.30;;;;;;4872782;29;20045;-66
2021/08/31 04:32:54;;;;;;;28.63;16.02;;;13.10;80.60;;;;;;4869973;29;20037;-74
2021/08/31 04:36:00;;;;;;;7.18;3.78;;;13.10;81.00;;;;;;4872241;29;20044;-67
2021/08/31 04:39:06;;;;;;;7.57;2.53;;;13.10;81.90;;;;;;4871363;29;20061;-68
2021/08/31 04:41:33;;;;;;;6.47;2.08;;;13.00;83.10;;;;;;4869992;29;20049;-67
2021/08/31 04:43:59;;;;;;;9.38;2.47;;;13.00;83.70;;;;;;4871222;29;20067;-67
2021/08/31 04:46:26;;;;;;;7.10;2.08;;;12.90;84.10;;;;;;4872523;29;20041;-75
2021/08/31 04:48:52;;;;;;;10.02;2.72;;;12.90;84.10;;;;;;4871648;29;20568;-67
2021/08/31 04:51:18;;;;;;;8.32;3.08;;;12.80;84.10;;;;;;4870855;29;20493;-70
2021/08/31 04:53:45;;;;;;;10.10;2.58;;;12.90;84.10;;;;;;4870194;29;20515;-72
2021/08/31 04:56:11;;;;;;;7.78;1.77;;;12.80;84.20;;;;;;4875483;29;20036;-68
2021/08/31 04:58:38;;;;;;;11.35;2.25;;;12.80;84.50;;;;;;4869267;29;20041;-67
2021/08/31 05:01:04;;;;;;;7.63;2.63;;;12.80;84.80;;;;;;4872215;29;20033;-67
2021/08/31 05:03:32;;;;;;;4.32;1.75;;;12.80;85.20;;;;;;4867247;29;20034;-67
2021/08/31 05:06:38;;;;;;;10.95;1.73;;;12.70;85.70;;;;;;4857879;29;20017;-68
2021/08/31 05:09:44;;;;;;;9.55;2.10;;;12.70;85.90;;;;;;4852079;29;20028;-71
2021/08/31 05:12:50;;;;;;;9.88;2.33;;;12.70;86.20;;;;;;4870251;29;20017;-68
2021/08/31 05:15:56;;;;;;;8.40;2.08;;;12.70;86.50;;;;;;4865740;29;20043;-68
2021/08/31 05:19:02;;;;;;;7.82;2.28;;;12.70;86.70;;;;;;4867596;29;20083;-71
2021/08/31 05:21:31;;;;;;;7.60;2.03;;;12.70;87.20;;;;;;4866849;29;20025;-69
2021/08/31 05:23:58;;;;;;;6.82;2.10;;;12.70;87.30;;;;;;4866525;29;20109;-67
2021/08/31 05:26:24;;;;;;;5.32;1.40;;;12.70;87.50;;;;;;4867027;29;20028;-67
2021/08/31 05:28:51;;;;;;;3.90;1.55;;;12.70;87.60;;;;;;4866289;29;20021;-73
2021/08/31 05:31:18;;;;;;;6.10;1.73;;;12.70;87.70;;;;;;4864236;29;20034;-68
2021/08/31 05:33:44;;;;;;;5.00;1.58;;;12.70;87.60;;;;;;4868290;29;20022;-69
2021/08/31 05:36:11;;;;;;;5.18;2.15;;;12.70;88.00;;;;;;4867241;29;20097;-72
2021/08/31 05:38:37;;;;;;;6.43;1.80;;;12.70;88.10;;;;;;4868339;29;20140;-69
2021/08/31 05:41:03;;;;;;;4.78;1.40;;;12.70;88.30;;;;;;4870306;29;20021;-67
2021/08/31 05:43:30;;;;;;;6.82;2.05;;;12.70;88.40;;;;;;4871714;29;20385;-67
2021/08/31 05:45:56;;;;;;;6.38;1.77;;;12.70;88.60;;;;;;4869307;29;20060;-67
2021/08/31 05:48:24;;;;;;;9.68;1.58;;;12.70;89.00;;;;;;4871148;29;20036;-67
2021/08/31 05:50:50;;;;;;;4.43;2.85;;;12.70;89.20;;;;;;4866303;29;20393;-67
2021/08/31 05:53:17;;;;;;;4.50;1.30;;;12.80;89.20;;;;;;4872178;29;20474;-68
2021/08/31 05:55:43;;;;;;;5.53;1.50;;;12.80;89.10;;;;;;4871137;29;20033;-67
2021/08/31 05:58:10;;;;;;;10.73;2.20;;;12.70;87.80;;;;;;4871247;29;20979;-68
2021/08/31 06:00:36;;;;;;;26.17;5.47;;;12.80;87.80;;;;;;4873953;29;20137;-67
2021/08/31 06:03:03;;;;;;;11.13;2.80;;;12.80;87.60;;;;;;4869650;29;20560;-67
2021/08/31 06:05:29;;;;;;;7.05;2.42;;;12.80;87.40;;;;;;4871982;29;20037;-67
2021/08/31 06:07:55;;;;;;;11.93;2.40;;;12.80;86.80;;;;;;4867395;29;20054;-67
2021/08/31 06:10:22;;;;;;;15.27;3.60;;;12.90;86.50;;;;;;4870939;29;20028;-68
2021/08/31 06:12:49;;;;;;;13.00;4.15;;;12.90;86.50;;;;;;4869816;29;20068;-67
2021/08/31 06:15:15;;;;;;;10.02;2.30;;;12.90;86.40;;;;;;4872819;29;20025;-71
2021/08/31 06:17:42;;;;;;;11.32;2.78;;;12.90;86.20;;;;;;4870542;29;20041;-67
2021/08/31 06:20:10;;;;;;;11.43;2.58;;;12.90;86.30;;;;;;4869677;29;20032;-70
2021/08/31 06:22:36;;;;;;;6.70;2.05;;;13.00;86.60;;;;;;4870968;29;20065;-70
2021/08/31 06:25:03;;;;;;;14.95;2.42;;;13.00;86.50;;;;;;4871390;29;20473;-69
2021/08/31 06:27:30;;;;;;;6.38;3.25;;;13.10;86.20;;;;;;4874885;29;20045;-68
2021/08/31 06:29:56;;;;;;;15.88;2.80;;;13.10;85.80;;;;;;4875797;29;20091;-67
2021/08/31 06:32:23;;;;;;;9.65;1.80;;;13.20;85.30;;;;;;4878255;29;20016;-68
2021/08/31 06:34:49;;;;;;;10.80;2.95;;;13.30;85.00;;;;;;4875721;29;20037;-69
2021/08/31 06:37:16;;;;;;;11.70;3.47;;;13.30;83.90;;;;;;4874597;29;20457;-68
2021/08/31 06:39:42;;;;;;;10.98;2.75;;;13.40;83.40;;;;;;4875779;29;20129;-69
2021/08/31 06:42:08;;;;;;;8.90;2.03;;;13.40;82.90;;;;;;4876664;29;20089;-67
2021/08/31 06:44:35;;;;;;;8.40;2.25;;;13.40;82.50;;;;;;4872382;29;20033;-67
2021/08/31 06:47:02;;;;;;;10.80;1.90;;;13.40;81.90;;;;;;4879298;29;20021;-72
2021/08/31 06:49:28;;;;;;;10.32;2.58;;;13.50;81.90;;;;;;4872171;29;20030;-68
2021/08/31 06:51:54;;;;;;;5.57;1.60;;;13.50;82.20;;;;;;4877420;29;20029;-67
2021/08/31 06:54:21;;;;;;;8.65;2.15;;;13.50;82.20;;;;;;4873848;29;20024;-67
2021/08/31 06:56:48;;;;;;;12.00;2.53;;;13.50;82.20;;;;;;4876271;29;20097;-68
2021/08/31 06:59:14;;;;;;;12.65;1.90;;;13.60;82.40;;;;;;4875716;29;20203;-68
2021/08/31 07:01:41;;;;;;;11.90;3.40;;;13.60;82.40;;;;;;4874383;29;20046;-68
2021/08/31 07:04:07;;;;;;;10.80;1.95;;;13.70;82.30;;;;;;4874228;29;20112;-69
2021/08/31 07:06:33;;;;;;;7.75;1.33;;;13.70;82.60;;;;;;4874452;29;20045;-67
2021/08/31 07:09:00;;;;;;;8.45;1.13;;;13.80;81.90;;;;;;4872956;29;20030;-68
2021/08/31 07:11:27;;;;;;;6.30;1.77;;;13.80;81.40;;;;;;4875945;29;20517;-69
2021/08/31 07:13:53;;;;;;;9.23;2.08;;;13.80;81.20;;;;;;4875307;29;20417;-68
2021/08/31 07:16:20;;;;;;;12.05;2.80;;;13.90;80.60;;;;;;4877453;29;20032;-69
2021/08/31 07:18:46;;;;;;;6.93;1.73;;;13.90;81.00;;;;;;4876858;29;20500;-69
2021/08/31 07:21:13;;;;;;;8.48;2.05;;;13.90;81.00;;;;;;4875599;29;20469;-69
2021/08/31 07:23:39;;;;;;;9.13;2.17;;;14.00;81.40;;;;;;4878924;29;20528;-70
2021/08/31 07:26:06;;;;;;;9.07;1.65;;;14.10;81.70;;;;;;4876961;29;20025;-72
2021/08/31 07:28:33;;;;;;;7.72;1.88;;;14.10;81.40;;;;;;4876593;29;20033;-69
2021/08/31 07:30:59;;;;;;;15.10;2.08;;;14.30;81.70;;;;;;4875462;29;20033;-72
2021/08/31 07:33:26;;;;;;;2.78;1.13;;;14.30;80.30;;;;;;4877393;29;20025;-72
2021/08/31 07:35:52;;;;;;;8.43;2.15;;;14.40;77.30;;;;;;4873453;29;20061;-69
2021/08/31 07:38:19;;;;;;;10.30;2.20;;;14.40;74.90;;;;;;4869734;29;20049;-70
2021/08/31 07:40:45;;;;;;;7.45;2.83;;;14.40;74.70;;;;;;4872975;29;20091;-72
2021/08/31 07:43:11;;;;;;;10.27;2.15;;;14.40;75.20;;;;;;4873533;29;20025;-69
2021/08/31 07:45:38;;;;;;;13.13;1.52;;;14.50;75.90;;;;;;4871263;29;20489;-72
2021/08/31 07:48:05;;;;;;;5.95;1.67;;;14.50;74.00;;;;;;4874167;29;20384;-73
2021/08/31 07:50:32;;;;;;;4.20;1.92;;;14.50;73.50;;;;;;4869758;29;20026;-68
2021/08/31 07:52:58;;;;;;;7.43;1.50;;;14.50;72.20;;;;;;4871773;29;20032;-71
2021/08/31 07:55:26;;;;;;;8.55;1.95;;;14.50;72.80;;;;;;4873835;29;20016;-68
2021/08/31 07:57:53;;;;;;;5.55;1.65;;;14.50;73.70;;;;;;4870974;29;20182;-73
2021/08/31 08:00:19;;;;;;;3.42;1.08;;;14.50;74.70;;;;;;4872714;29;20458;-73
2021/08/31 08:02:47;;;;;;;4.05;1.35;;;14.50;74.60;;;;;;4872258;29;20026;-72
2021/08/31 08:05:16;;;;;;;4.28;0.93;;;14.50;74.90;;;;;;4871410;29;20030;-69
2021/08/31 08:07:43;;;;;;;6.00;2.13;;;14.50;75.40;;;;;;4870012;29;20026;-72
2021/08/31 08:10:10;;;;;;;10.23;2.40;;;14.50;75.80;;;;;;4872284;29;20036;-71
2021/08/31 08:12:36;;;;;;;10.52;3.10;;;14.50;77.10;;;;;;4873236;29;20078;-70
2021/08/31 08:15:04;;;;;;;12.52;3.28;;;14.50;78.10;;;;;;4872725;29;20044;-71
2021/08/31 08:17:31;;;;;;;10.00;2.10;;;14.40;77.60;;;;;;4858540;29;20515;-70
2021/08/31 08:19:57;;;;;;;7.80;1.70;;;14.40;77.50;;;;;;4870548;29;20029;-72
2021/08/31 08:22:24;;;;;;;6.68;2.65;;;14.40;78.10;;;;;;4871417;29;20041;-72
2021/08/31 08:24:50;;;;;;;10.10;2.28;;;14.40;77.90;;;;;;4869792;29;20089;-71
2021/08/31 08:27:18;;;;;;;14.63;2.08;;;14.40;77.20;;;;;;4869563;29;20036;-71
2021/08/31 08:29:44;;;;;;;8.25;2.00;;;14.40;76.20;;;;;;4867767;29;20026;-71
2021/08/31 08:32:12;;;;;;;7.18;1.55;;;14.40;76.50;;;;;;4871950;29;20055;-72
2021/08/31 08:34:39;;;;;;;7.43;1.55;;;14.50;76.90;;;;;;4868615;29;20036;-72
2021/08/31 08:37:07;;;;;;;6.70;1.95;;;14.60;74.20;;;;;;4875546;29;20029;-71
2021/08/31 08:39:34;;;;;;;6.05;2.38;;;14.60;73.20;;;;;;4870008;29;20102;-72
2021/08/31 08:42:00;;;;;;;8.50;1.40;;;14.80;72.40;;;;;;4861456;29;20021;-72
2021/08/31 08:44:28;;;;;;;4.70;1.05;;;14.90;70.60;;;;;;4870644;29;20129;-72
2021/08/31 08:46:56;;;;;;;7.70;1.27;;;15.00;69.80;;;;;;4873445;29;20049;-68
2021/08/31 08:49:23;;;;;;;5.68;1.45;;;15.00;68.70;;;;;;4858492;29;20441;-72
2021/08/31 08:51:53;;;;;;;5.32;1.42;;;15.10;68.10;;;;;;4869483;29;20049;-72
2021/08/31 08:54:19;;;;;;;10.23;1.85;;;15.20;67.60;;;;;;4870332;29;20036;-72
2021/08/31 08:56:46;;;;;;;7.30;1.95;;;15.30;68.10;;;;;;4856960;29;20029;-71
2021/08/31 08:59:13;;;;;;;5.57;1.30;;;15.30;68.10;;;;;;4869975;29;20111;-69
2021/08/31 09:01:49;;;;;;;7.22;1.80;;;15.40;68.30;;;;;;4869541;29;20112;-72
2021/08/31 09:04:17;;;;;;;6.53;2.30;;;15.40;69.60;;;;;;4871100;29;20040;-72
2021/08/31 09:06:48;;;;;;;6.80;2.08;;;15.40;70.70;;;;;;4866920;29;20033;-71
2021/08/31 09:09:15;;;;;;;6.88;1.30;;;15.30;71.30;;;;;;4871169;29;20070;-71
2021/08/31 09:11:46;;;;;;;8.57;2.03;;;15.30;72.10;;;;;;4874752;29;20047;-72
2021/08/31 09:14:30;;;;;;;8.82;1.70;;;15.30;72.30;;;;;;4870224;29;20485;-73
2021/08/31 09:17:02;;;;;;;10.55;2.88;;;15.30;71.50;;;;;;4874617;29;20036;-72
2021/08/31 09:19:37;;;;;;;5.68;1.80;;;15.30;71.30;;;;;;4875986;29;20123;-73
2021/08/31 09:22:24;;;;;;;10.00;1.98;;;15.30;71.60;;;;;;4873636;29;20385;-73
2021/08/31 09:25:11;;;;;;;4.63;1.50;;;15.40;72.50;;;;;;4871504;29;20029;-73
2021/08/31 09:27:40;;;;;;;10.85;2.05;;;15.60;72.10;;;;;;4871405;29;20112;-72
2021/08/31 09:30:22;;;;;;;10.35;2.03;;;15.70;70.50;;;;;;4875782;29;20040;-72
2021/08/31 09:33:03;;;;;;;9.05;1.98;;;15.80;68.90;;;;;;4873995;29;20021;-71
2021/08/31 09:35:31;;;;;;;10.52;2.80;;;15.90;68.60;;;;;;4874643;29;20460;-72
2021/08/31 09:38:06;;;;;;;7.15;2.20;;;16.00;67.40;;;;;;4872017;29;20092;-72
2021/08/31 09:40:41;;;;;;;3.83;1.55;;;16.00;66.90;;;;;;4870428;29;20030;-71
2021/08/31 09:43:32;;;;;;;3.65;1.20;;;16.10;66.50;;;;;;4869811;29;20053;-72
2021/08/31 09:45:57;;;;;;;9.82;1.50;;;16.20;60.80;;;;;;4875031;29;20037;-72
2021/08/31 09:48:24;;;;;;;5.95;1.70;;;16.30;60.50;;;;;;4874763;29;20017;-72
2021/08/31 09:50:57;;;;;;;4.63;1.77;;;16.30;59.30;;;;;;4872191;29;20028;-72
2021/08/31 09:53:28;;;;;;;5.72;1.88;;;16.40;58.50;;;;;;4875002;29;20037;-72
2021/08/31 09:56:14;;;;;;;8.48;1.77;;;16.40;58.70;;;;;;4872784;29;20036;-71
2021/08/31 09:58:45;;;;;;;7.88;1.98;;;16.50;57.50;;;;;;4874277;29;20078;-73
2021/08/31 10:01:12;;;;;;;5.40;1.13;;;16.60;57.60;;;;;;4870000;29;20029;-72
2021/08/31 10:03:43;;;;;;;9.02;1.58;;;16.70;56.70;;;;;;4873520;29;20025;-73
2021/08/31 10:06:10;;;;;;;3.88;1.20;;;16.80;55.80;;;;;;4874930;29;20036;-73
2021/08/31 10:08:39;;;;;;;7.30;1.45;;;16.80;53.50;;;;;;4873884;29;20033;-70
2021/08/31 10:11:06;;;;;;;6.80;1.35;;;16.90;52.70;;;;;;4874075;29;20469;-72
2021/08/31 10:13:37;;;;;;;8.65;1.40;;;16.90;51.20;;;;;;4873229;29;20113;-69
2021/08/31 10:16:04;;;;;;;4.20;0.70;;;16.90;49.50;;;;;;4875446;29;20028;-73
2021/08/31 10:18:31;;;;;;;5.15;1.00;;;17.00;49.50;;;;;;4872994;29;20035;-72
2021/08/31 10:21:14;;;;;;;5.35;1.35;;;17.10;48.90;;;;;;4874549;29;20025;-69
2021/08/31 10:23:48;;;;;;;10.00;1.38;;;17.20;48.80;;;;;;4869440;29;20490;-73
2021/08/31 10:26:38;;;;;;;6.32;1.17;;;17.20;49.70;;;;;;4872537;29;20038;-70
2021/08/31 10:29:22;;;;;;;6.60;1.30;;;17.20;48.50;;;;;;4872459;29;20119;-72
2021/08/31 10:31:54;;;;;;;8.45;1.50;;;17.20;49.60;;;;;;4872415;29;20029;-72
2021/08/31 10:34:30;;;;;;;10.68;1.75;;;17.20;49.70;;;;;;4872642;29;20032;-71
2021/08/31 10:37:17;;;;;;;10.80;2.67;;;17.20;48.90;;;;;;4871600;29;20067;-72
2021/08/31 10:39:55;;;;;;;9.52;1.63;;;17.20;49.50;;;;;;4870529;29;20050;-70
2021/08/31 10:42:27;;;;;;;5.03;2.80;;;17.30;49.40;;;;;;4875630;29;20036;-71
2021/08/31 10:44:55;;;;;;;4.82;1.70;;;17.40;49.20;;;;;;4872128;29;20029;-72
2021/08/31 10:47:31;;;;;;;8.32;1.60;;;17.40;47.80;;;;;;4871429;29;20024;-69
2021/08/31 10:49:57;;;;;;;6.72;1.63;;;17.50;49.10;;;;;;4872974;29;20033;-70
2021/08/31 10:52:49;;;;;;;4.03;1.00;;;17.70;50.60;;;;;;4876577;29;20385;-72
2021/08/31 10:55:25;;;;;;;5.65;1.73;;;17.80;48.20;;;;;;4874368;29;20085;-69
2021/08/31 10:57:51;;;;;;;;;;;17.80;47.00;;;;;;4873036;29;20041;-71
2021/08/31 11:00:18;;;;;;;4.97;1.73;;;18.00;48.20;;;;;;4872521;29;19912;-72
2021/08/31 11:02:50;;;;;;;6.47;1.15;;;18.00;47.10;;;;;;4871066;29;20040;-73
2021/08/31 11:05:25;;;;;;;4.97;1.02;;;17.90;47.50;;;;;;4873448;29;20021;-72
2021/08/31 11:08:00;;;;;;;;;;;17.90;47.80;;;;;;4873612;29;20122;-71
2021/08/31 11:10:32;;;;;;;1.20;0.60;;;17.80;49.20;;;;;;4869366;29;20357;-69
2021/08/31 11:13:11;;;;;;;7.30;2.08;;;17.80;48.80;;;;;;4876246;29;20142;-70
2021/08/31 11:15:39;;;;;;;2.35;1.10;;;17.80;49.70;;;;;;4876913;29;20026;-69
2021/08/31 11:18:10;;;;;;;3.60;0.70;;;17.80;48.40;;;;;;4879744;29;20429;-71
2021/08/31 11:20:38;;;;;;;2.55;0.80;;;17.80;49.10;;;;;;4874032;29;20608;-71
2021/08/31 11:23:10;;;;;;;3.20;1.27;;;17.80;49.30;;;;;;4878736;29;20033;-71
2021/08/31 11:25:39;;;;;;;5.22;1.38;;;17.90;49.00;;;;;;4874642;29;20409;-73
2021/08/31 11:28:13;;;;;;;4.95;1.30;;;18.00;48.60;;;;;;4873071;29;20385;-72
2021/08/31 11:30:53;;;;;;;6.68;1.50;;;18.10;49.30;;;;;;4876104;29;20047;-70
2021/08/31 11:33:30;;;;;;;5.70;1.20;;;18.30;49.70;;;;;;4876955;29;20048;-69
2021/08/31 11:36:18;;;;;;;3.42;1.55;;;18.40;49.00;;;;;;4878113;29;20113;-72
2021/08/31 11:38:48;;;;;;;8.43;1.20;;;18.40;48.60;;;;;;4872202;29;20144;-69
2021/08/31 11:41:27;;;;;;;5.43;1.23;;;18.50;48.30;;;;;;4874446;29;20343;-69
2021/08/31 11:44:18;;;;;;;4.35;0.95;;;18.60;48.80;;;;;;4877528;29;20032;-69
2021/08/31 11:46:50;;;;;;;3.15;0.95;;;18.70;48.40;;;;;;4873650;29;20568;-69
2021/08/31 11:49:20;;;;;;;2.72;1.10;;;18.80;47.80;;;;;;4876179;29;20033;-70
2021/08/31 11:52:14;;;;;;;6.43;0.95;;;18.70;47.30;;;;;;4876432;29;20073;-69
2021/08/31 11:54:43;;;;;;;5.65;1.08;;;18.70;48.10;;;;;;4874079;29;20047;-71
2021/08/31 11:57:13;;;;;;;1.95;0.82;;;18.60;48.50;;;;;;4876157;29;20480;-70
2021/08/31 11:59:49;;;;;;;3.45;1.23;;;18.70;48.60;;;;;;4876510;29;20066;-69
2021/08/31 12:02:20;;;;;;;2.70;1.10;;;18.80;49.00;;;;;;4876494;29;20024;-71
2021/08/31 12:05:08;;;;;;;5.85;1.45;;;18.90;47.70;;;;;;4873955;29;20515;-69
2021/08/31 12:07:40;;;;;;;4.75;0.90;;;18.80;46.90;;;;;;4874392;29;20029;-69
2021/08/31 12:10:27;;;;;;;3.92;1.77;;;18.90;48.10;;;;;;4875708;29;20029;-69
2021/08/31 12:12:54;;;;;;;4.97;2.05;;;19.00;48.00;;;;;;4874149;29;20042;-72
2021/08/31 12:15:26;;;;;;;7.07;1.40;;;18.90;47.80;;;;;;4874109;29;20025;-70
2021/08/31 12:18:04;;;;;;;4.68;1.52;;;19.00;47.40;;;;;;4878614;29;20033;-71
2021/08/31 12:20:31;;;;;;;6.95;0.90;;;19.10;47.80;;;;;;4870956;29;20084;-69
2021/08/31 12:23:04;;;;;;;3.60;1.65;;;19.20;48.30;;;;;;4876882;29;20551;-69
2021/08/31 12:25:43;;;;;;;2.28;0.77;;;19.30;47.00;;;;;;4875484;29;20041;-71
2021/08/31 12:28:10;;;;;;;5.35;1.10;;;19.50;46.90;;;;;;4874177;29;21043;-71
2021/08/31 12:30:38;;;;;;;5.28;1.08;;;19.50;45.60;;;;;;4875559;29;20065;-69
2021/08/31 12:33:05;;;;;;;4.35;1.25;;;19.60;46.50;;;;;;4877822;29;20025;-69
2021/08/31 12:35:39;;;;;;;10.32;1.10;;;19.60;46.30;;;;;;4875501;29;20032;-71
2021/08/31 12:38:11;;;;;;;6.40;1.20;;;19.60;45.50;;;;;;4872364;29;20049;-69
2021/08/31 12:40:50;;;;;;;3.38;1.13;;;19.50;47.70;;;;;;4873150;29;20085;-70
2021/08/31 12:43:17;;;;;;;5.35;1.45;;;19.50;47.60;;;;;;4878846;29;20033;-70
2021/08/31 12:45:49;;;;;;;5.43;1.27;;;19.40;47.80;;;;;;4871900;29;20579;-69
2021/08/31 12:48:16;;;;;;;5.35;2.03;;;19.40;48.50;;;;;;4876671;29;20112;-72
2021/08/31 12:50:51;;;;;;;3.35;0.77;;;19.50;49.40;;;;;;4871113;29;20029;-70
2021/08/31 12:53:18;;;;;;;4.03;0.90;;;19.60;50.50;;;;;;4878429;29;20021;-70
2021/08/31 12:56:01;;;;;;;5.13;1.20;;;19.70;49.60;;;;;;4858022;29;20505;-70
2021/08/31 12:58:37;;;;;;;4.97;1.10;;;19.70;49.20;;;;;;4857588;29;20132;-69
2021/08/31 13:01:15;;;;;;;5.43;1.08;;;19.70;48.90;;;;;;4873122;29;20032;-69
2021/08/31 13:03:45;;;;;;;3.42;1.50;;;19.70;48.90;;;;;;4874636;29;20033;-70